The Lakes, Nevada
Current Conditions -  °F | °C
As of 6:53 PM on Monday 20 Oct 2014 (Local Time) from KVGT Reporting Station
Broken Clouds Broken Clouds  
Wind Chill: 27°   Ceiling: 10000
Heat Index: 27°   Visibility: 10mi
Dew Point:   Wind: 8mph
Humidity: 23%   Direction: 140°SE
Pressure: 29.82"   Gusts: NA
Location:  36.14°N, 115.29°W
Report Text: KVGT 210153Z 14007KT 10SM BKN100 27/04 A2982 RMK AO2 SLP096 T02720044
Loading
Personal Weather Stations






























Interactive Weather Map
Tropical Storm Tracking
New forecast layout! Learn more

10-Day Weather Forecast

Advertisements
Track Severe Weather on mobile